Time;durP1;ratioP1;P1;durP2;ratioP2;P2;SDS_P1;SDS_P2;PMS_P1;PMS_P2;Temp;Humidity;BMP_temperature;BMP_pressure;BME280_temperature;BME280_humidity;BME280_pressure;Samples;Min_cycle;Max_cycle;Signal;HPM_P1;HPM_P2
2020/12/10 00:02:13;;;;;;;75.47;28.70;;;4.90;10.30;;;;;;4975452;28;20193;-63
2020/12/10 00:04:39;;;;;;;72.18;31.00;;;4.80;16.40;;;;;;4973990;28;20183;-64
2020/12/10 00:07:06;;;;;;;78.83;31.87;;;4.60;26.60;;;;;;4975287;28;20609;-64
2020/12/10 00:09:31;;;;;;;78.10;31.65;;;4.60;50.90;;;;;;4975404;28;20181;-63
2020/12/10 00:11:57;;;;;;;80.47;30.37;;;4.70;70.20;;;;;;4975353;28;20188;-62
2020/12/10 00:14:22;;;;;;;73.60;30.03;;;4.80;86.50;;;;;;4973585;28;20736;-62
2020/12/10 00:16:48;;;;;;;73.50;31.20;;;5.00;93.50;;;;;;4974079;28;20676;-62
2020/12/10 00:19:14;;;;;;;80.00;29.42;;;4.80;66.80;;;;;;4975456;28;20323;-65
2020/12/10 00:21:40;;;;;;;83.50;31.13;;;4.90;86.90;;;;;;4974896;28;20254;-63
2020/12/10 00:24:05;;;;;;;77.73;28.40;;;4.80;87.50;;;;;;4973790;28;20498;-62
2020/12/10 00:26:31;;;;;;;79.60;31.67;;;4.70;81.50;;;;;;4973903;28;20184;-64
2020/12/10 00:28:56;;;;;;;81.87;31.67;;;4.70;89.70;;;;;;4975412;28;20684;-63
2020/12/10 00:31:22;;;;;;;91.20;33.60;;;4.70;90.10;;;;;;4974664;28;20296;-65
2020/12/10 00:33:48;;;;;;;73.30;31.30;;;4.70;93.40;;;;;;4974305;28;20242;-64
2020/12/10 00:36:14;;;;;;;82.67;34.37;;;4.60;99.90;;;;;;4974782;28;20219;-62
2020/12/10 00:38:39;;;;;;;86.13;32.33;;;4.80;99.90;;;;;;4977803;28;20590;-64
2020/12/10 00:41:05;;;;;;;79.63;32.23;;;4.80;99.90;;;;;;4978275;28;20910;-63
2020/12/10 00:43:30;;;;;;;73.03;30.37;;;4.70;99.90;;;;;;4977270;28;20239;-63
2020/12/10 00:46:02;;;;;;;96.30;35.43;;;4.60;99.90;;;;;;4978625;28;20208;-63
2020/12/10 00:48:27;;;;;;;76.18;32.28;;;4.70;99.90;;;;;;4977318;28;20184;-65
2020/12/10 00:50:53;;;;;;;82.73;33.20;;;4.70;99.90;;;;;;4978141;28;20190;-63
2020/12/10 00:53:18;;;;;;;87.20;35.07;;;4.60;99.90;;;;;;4977797;28;20191;-63
2020/12/10 00:55:44;;;;;;;92.67;33.90;;;4.60;99.90;;;;;;4977978;28;20231;-65
2020/12/10 00:58:09;;;;;;;98.40;36.60;;;4.60;99.90;;;;;;4977674;28;20199;-65
2020/12/10 01:00:35;;;;;;;80.50;34.80;;;4.60;99.90;;;;;;4977901;28;20188;-65
2020/12/10 01:03:01;;;;;;;77.70;33.00;;;4.70;99.90;;;;;;4977483;28;20191;-65
2020/12/10 01:05:26;;;;;;;77.03;32.10;;;4.70;99.90;;;;;;4977220;28;20250;-65
2020/12/10 01:07:52;;;;;;;100.90;34.17;;;4.70;99.90;;;;;;4977398;28;20282;-65
2020/12/10 01:10:17;;;;;;;75.93;33.57;;;4.80;99.90;;;;;;4977493;28;20270;-65
2020/12/10 01:12:43;;;;;;;94.07;31.27;;;4.70;99.90;;;;;;4977483;28;20180;-65
2020/12/10 01:15:08;;;;;;;88.70;34.57;;;4.70;99.90;;;;;;4977571;28;20230;-65
2020/12/10 01:17:34;;;;;;;74.63;32.93;;;4.50;99.90;;;;;;4977384;28;20179;-65
2020/12/10 01:19:59;;;;;;;84.43;34.10;;;4.50;99.90;;;;;;4977376;28;20673;-65
2020/12/10 01:22:25;;;;;;;90.13;36.07;;;4.40;99.90;;;;;;4977525;28;20628;-65
2020/12/10 01:24:51;;;;;;;77.33;34.33;;;4.50;99.90;;;;;;4976737;28;20198;-64
2020/12/10 01:27:21;;;;;;;75.23;34.20;;;4.60;99.90;;;;;;4976868;28;20215;-63
2020/12/10 01:29:47;;;;;;;79.85;31.63;;;4.70;99.90;;;;;;4976143;28;20556;-64
2020/12/10 01:32:13;;;;;;;85.53;33.97;;;4.90;99.90;;;;;;4976873;28;20214;-63
2020/12/10 01:34:38;;;;;;;76.27;34.43;;;4.90;99.90;;;;;;4976677;28;20188;-65
2020/12/10 01:37:04;;;;;;;76.60;31.63;;;4.90;99.90;;;;;;4975860;28;20180;-63
2020/12/10 01:39:29;;;;;;;82.37;34.97;;;4.90;93.90;;;;;;4976789;28;20176;-63
2020/12/10 01:41:55;;;;;;;89.40;33.30;;;4.80;75.90;;;;;;4976671;28;20501;-65
2020/12/10 01:44:20;;;;;;;97.03;37.23;;;4.70;65.90;;;;;;4975503;28;20605;-63
2020/12/10 01:46:46;;;;;;;85.03;34.03;;;4.70;64.90;;;;;;4976700;28;20577;-63
2020/12/10 01:49:11;;;;;;;79.37;33.07;;;4.60;66.50;;;;;;4975688;28;20180;-63
2020/12/10 01:51:37;;;;;;;72.77;35.30;;;4.50;74.70;;;;;;4976964;28;20192;-63
2020/12/10 01:54:04;;;;;;;74.87;31.73;;;4.70;86.30;;;;;;4976785;28;20184;-65
2020/12/10 01:56:30;;;;;;;76.93;30.10;;;4.60;73.10;;;;;;4976445;28;20204;-63
2020/12/10 01:58:57;;;;;;;68.97;29.90;;;4.60;69.70;;;;;;4976354;28;20199;-65
2020/12/10 02:01:23;;;;;;;83.07;35.42;;;4.60;69.00;;;;;;4976520;28;20176;-65
2020/12/10 02:03:49;;;;;;;77.27;32.63;;;4.50;77.30;;;;;;4976209;28;20195;-65
2020/12/10 02:06:14;;;;;;;77.50;33.00;;;4.50;78.90;;;;;;4976370;28;20188;-63
2020/12/10 02:08:41;;;;;;;75.50;35.40;;;4.50;85.80;;;;;;4976248;28;20259;-63
2020/12/10 02:11:08;;;;;;;78.93;31.73;;;4.40;89.80;;;;;;4976394;28;20180;-65
2020/12/10 02:13:34;;;;;;;74.13;34.13;;;4.40;89.10;;;;;;4976056;28;20184;-65
2020/12/10 02:15:59;;;;;;;71.03;30.83;;;4.60;92.30;;;;;;4976105;28;20208;-65
2020/12/10 02:18:27;;;;;;;90.17;35.80;;;4.50;91.10;;;;;;4976073;28;20552;-65
2020/12/10 02:20:52;;;;;;;76.15;33.50;;;4.60;94.40;;;;;;4976001;28;20184;-65
2020/12/10 02:23:18;;;;;;;78.27;30.67;;;4.90;99.90;;;;;;4976186;28;20190;-65
2020/12/10 02:25:44;;;;;;;73.27;32.87;;;4.60;77.60;;;;;;4975827;28;20900;-66
2020/12/10 02:28:11;;;;;;;67.83;30.60;;;4.50;56.50;;;;;;4976069;28;20188;-65
2020/12/10 02:30:38;;;;;;;72.47;31.90;;;4.50;57.40;;;;;;4976070;28;20184;-65
2020/12/10 02:33:06;;;;;;;82.28;35.30;;;4.50;68.70;;;;;;4975845;28;20195;-65
2020/12/10 02:35:33;;;;;;;72.30;33.45;;;4.60;73.90;;;;;;4976221;28;20212;-65
2020/12/10 02:38:02;;;;;;;69.18;31.52;;;4.40;65.80;;;;;;4975828;28;20501;-65
2020/12/10 02:40:34;;;;;;;83.78;32.50;;;4.40;65.70;;;;;;4975748;28;20191;-65
2020/12/10 02:43:00;;;;;;;63.70;31.48;;;4.20;79.70;;;;;;4974858;28;20617;-65
2020/12/10 02:45:26;;;;;;;77.80;34.60;;;4.50;95.00;;;;;;4975470;28;20207;-65
2020/12/10 02:47:52;;;;;;;64.87;31.10;;;4.50;96.60;;;;;;4975590;28;20442;-65
2020/12/10 02:50:17;;;;;;;63.63;29.67;;;4.50;91.00;;;;;;4975687;28;20466;-65
2020/12/10 02:52:43;;;;;;;74.23;31.53;;;4.40;79.60;;;;;;4975588;28;20222;-65
2020/12/10 02:55:09;;;;;;;66.57;32.20;;;4.50;76.30;;;;;;4975657;28;20213;-65
2020/12/10 02:57:35;;;;;;;78.27;34.67;;;4.60;72.30;;;;;;4975615;28;20183;-65
2020/12/10 03:00:00;;;;;;;75.10;32.47;;;4.60;68.00;;;;;;4975309;28;20712;-65
2020/12/10 03:02:26;;;;;;;68.03;31.93;;;4.50;64.10;;;;;;4974449;28;20190;-65
2020/12/10 03:04:52;;;;;;;70.90;31.40;;;4.50;59.10;;;;;;4975216;28;20640;-65
2020/12/10 03:07:17;;;;;;;61.53;30.10;;;4.40;64.30;;;;;;4975428;28;20199;-65
2020/12/10 03:09:43;;;;;;;64.13;32.40;;;4.60;81.00;;;;;;4975338;28;20457;-65
2020/12/10 03:12:10;;;;;;;65.22;30.33;;;4.70;64.50;;;;;;4974240;28;20188;-65
2020/12/10 03:14:36;;;;;;;76.18;32.28;;;4.60;46.90;;;;;;4974891;28;20192;-65
2020/12/10 03:17:02;;;;;;;61.60;31.57;;;4.60;42.10;;;;;;4975380;28;20513;-66
2020/12/10 03:19:28;;;;;;;69.78;35.60;;;4.60;31.60;;;;;;4975000;28;20597;-64
2020/12/10 03:21:53;;;;;;;71.83;31.43;;;4.50;33.50;;;;;;4975065;28;20315;-64
2020/12/10 03:24:19;;;;;;;64.97;30.37;;;4.50;33.40;;;;;;4974812;28;20267;-65
2020/12/10 03:26:44;;;;;;;72.70;32.00;;;4.50;33.50;;;;;;4974249;28;20195;-64
2020/12/10 03:29:10;;;;;;;59.27;32.10;;;4.50;41.90;;;;;;4975387;28;20192;-64
2020/12/10 03:31:36;;;;;;;59.50;31.90;;;4.60;53.40;;;;;;4974951;28;20241;-64
2020/12/10 03:34:04;;;;;;;62.20;33.58;;;4.70;53.40;;;;;;4974754;28;20188;-64
2020/12/10 03:36:46;;;;;;;63.15;31.25;;;4.80;53.30;;;;;;4973885;28;20310;-64
2020/12/10 03:39:12;;;;;;;56.45;31.85;;;4.80;25.80;;;;;;4975036;28;20621;-64
2020/12/10 03:41:37;;;;;;;58.53;31.10;;;4.60;1.00;;;;;;4974989;28;20199;-64
2020/12/10 03:44:03;;;;;;;63.13;30.60;;;4.60;1.00;;;;;;4975071;28;20243;-64
2020/12/10 03:46:29;;;;;;;58.40;30.10;;;4.70;1.00;;;;;;4974858;28;20224;-64
2020/12/10 03:48:54;;;;;;;55.40;30.77;;;4.70;1.00;;;;;;4974002;28;20583;-64
2020/12/10 03:51:20;;;;;;;55.87;29.17;;;5.00;1.00;;;;;;4975382;28;20612;-64
2020/12/10 03:53:45;;;;;;;55.63;28.60;;;4.90;1.00;;;;;;4973614;28;20191;-64
2020/12/10 03:56:11;;;;;;;53.73;26.73;;;4.60;1.00;;;;;;4974796;28;20644;-64
2020/12/10 03:58:37;;;;;;;63.00;29.63;;;4.60;1.00;;;;;;4974761;28;20543;-64
2020/12/10 04:01:02;;;;;;;58.60;28.47;;;4.50;1.00;;;;;;4974703;28;20188;-64
2020/12/10 04:03:28;;;;;;;51.20;28.27;;;4.50;1.00;;;;;;4974424;28;20259;-64
2020/12/10 04:05:53;;;;;;;50.33;28.23;;;4.60;1.00;;;;;;4974627;28;20266;-64
2020/12/10 04:08:19;;;;;;;45.00;25.57;;;4.40;1.00;;;;;;4973712;28;20590;-64
2020/12/10 04:10:44;;;;;;;45.53;24.20;;;4.50;1.00;;;;;;4974610;28;20184;-64
2020/12/10 04:13:10;;;;;;;46.17;24.43;;;4.40;1.00;;;;;;4976863;28;20215;-64
2020/12/10 04:15:35;;;;;;;43.10;23.27;;;4.20;1.00;;;;;;4977477;28;20243;-64
2020/12/10 04:18:01;;;;;;;51.90;27.17;;;4.20;1.00;;;;;;4978849;28;20188;-64
2020/12/10 04:20:26;;;;;;;44.73;23.40;;;4.00;1.00;;;;;;4978318;28;20188;-64
2020/12/10 04:22:52;;;;;;;43.90;23.30;;;4.00;6.70;;;;;;4978133;28;20641;-64
2020/12/10 04:25:17;;;;;;;43.77;24.90;;;4.00;27.40;;;;;;4977752;28;20202;-63
2020/12/10 04:27:43;;;;;;;38.80;22.07;;;4.00;43.40;;;;;;4978083;28;20195;-64
2020/12/10 04:30:08;;;;;;;46.30;25.53;;;4.30;61.10;;;;;;4977029;28;20187;-64
2020/12/10 04:32:34;;;;;;;44.10;22.63;;;4.50;62.10;;;;;;4977873;28;20295;-64
2020/12/10 04:34:59;;;;;;;43.03;23.20;;;4.60;55.10;;;;;;4976614;28;20269;-64
2020/12/10 04:37:25;;;;;;;46.07;22.90;;;4.40;21.10;;;;;;4976941;28;20199;-64
2020/12/10 04:39:50;;;;;;;39.70;21.83;;;4.30;11.90;;;;;;4978237;28;20606;-64
2020/12/10 04:42:18;;;;;;;36.50;21.07;;;4.10;3.50;;;;;;4978109;28;20176;-64
2020/12/10 04:44:45;;;;;;;37.33;21.02;;;3.90;6.40;;;;;;4977515;28;20191;-62
2020/12/10 04:47:12;;;;;;;41.22;23.88;;;4.00;25.80;;;;;;4978067;28;20601;-64
2020/12/10 04:49:39;;;;;;;41.33;22.13;;;4.10;40.40;;;;;;4978122;28;20613;-62
2020/12/10 04:52:07;;;;;;;42.47;22.38;;;4.10;49.20;;;;;;4977852;28;20177;-62
2020/12/10 04:54:33;;;;;;;38.88;22.38;;;4.30;50.90;;;;;;4976397;28;20590;-62
2020/12/10 04:57:02;;;;;;;38.13;22.00;;;4.30;53.10;;;;;;4977630;28;20199;-62
2020/12/10 04:59:27;;;;;;;47.22;23.48;;;4.30;39.70;;;;;;4976682;28;20200;-63
2020/12/10 05:01:55;;;;;;;44.70;22.67;;;4.40;40.30;;;;;;4977741;28;20598;-63
2020/12/10 05:04:22;;;;;;;42.92;24.25;;;4.40;28.30;;;;;;4976370;28;20212;-63
2020/12/10 05:06:51;;;;;;;54.17;25.98;;;4.20;17.00;;;;;;4977570;28;20263;-63
2020/12/10 05:09:17;;;;;;;43.80;22.35;;;4.20;24.00;;;;;;4977475;28;20271;-61
2020/12/10 05:11:43;;;;;;;60.20;26.52;;;4.10;32.00;;;;;;4977047;28;20207;-61
2020/12/10 05:14:08;;;;;;;50.23;23.60;;;4.10;36.90;;;;;;4977040;28;20212;-61
2020/12/10 05:16:34;;;;;;;47.30;23.97;;;4.10;51.50;;;;;;4977162;28;20641;-63
2020/12/10 05:19:20;;;;;;;54.87;25.90;;;4.20;56.40;;;;;;4976473;28;20574;-63
2020/12/10 05:22:05;;;;;;;48.90;28.02;;;4.20;51.80;;;;;;4977077;28;20696;-64
2020/12/10 05:24:32;;;;;;;38.22;21.77;;;4.10;53.10;;;;;;4976770;28;20194;-64
2020/12/10 05:27:17;;;;;;;59.80;25.52;;;4.00;52.60;;;;;;4977413;28;20621;-63
2020/12/10 05:29:44;;;;;;;53.75;25.25;;;4.10;73.90;;;;;;4977109;28;20198;-63
2020/12/10 05:32:37;;;;;;;62.33;27.75;;;4.00;83.80;;;;;;4977011;28;20283;-63
2020/12/10 05:35:24;;;;;;;59.35;24.33;;;4.20;93.00;;;;;;4976473;28;20299;-63
2020/12/10 05:37:52;;;;;;;54.95;24.60;;;4.10;84.70;;;;;;4976841;28;20326;-63
2020/12/10 05:40:19;;;;;;;57.70;26.38;;;4.10;83.80;;;;;;4977196;28;20234;-63
2020/12/10 05:42:47;;;;;;;51.45;25.90;;;4.00;87.60;;;;;;4976563;28;20193;-63
2020/12/10 05:45:20;;;;;;;56.75;29.00;;;4.00;88.70;;;;;;4976383;28;20259;-64
2020/12/10 05:47:46;;;;;;;55.75;27.27;;;4.00;96.10;;;;;;4976659;28;20199;-64
2020/12/10 05:50:14;;;;;;;66.78;28.17;;;4.00;97.50;;;;;;4976451;28;20259;-64
2020/12/10 05:52:52;;;;;;;60.22;28.63;;;4.00;96.90;;;;;;4976572;28;20195;-64
2020/12/10 05:55:18;;;;;;;57.55;24.52;;;4.10;99.40;;;;;;4976122;28;20204;-64
2020/12/10 05:57:44;;;;;;;59.00;27.67;;;4.10;97.90;;;;;;4976476;28;20558;-64
2020/12/10 06:00:09;;;;;;;55.87;27.97;;;3.90;97.80;;;;;;4975565;28;20271;-63
2020/12/10 06:02:36;;;;;;;59.40;26.47;;;4.00;99.90;;;;;;4976711;28;20255;-64
2020/12/10 06:05:03;;;;;;;68.25;26.92;;;4.00;99.90;;;;;;4975986;28;20676;-64
2020/12/10 06:07:28;;;;;;;58.47;26.70;;;4.00;99.90;;;;;;4975158;28;20184;-64
2020/12/10 06:09:54;;;;;;;72.97;28.00;;;3.90;99.90;;;;;;4976070;28;20255;-64
2020/12/10 06:12:24;;;;;;;63.53;27.98;;;3.80;99.90;;;;;;4976053;28;20196;-64
2020/12/10 06:14:51;;;;;;;63.38;27.52;;;3.80;99.90;;;;;;4975801;28;20203;-64
2020/12/10 06:17:17;;;;;;;73.00;25.95;;;3.80;99.90;;;;;;4976000;28;20180;-64
2020/12/10 06:19:42;;;;;;;61.93;24.73;;;3.90;99.90;;;;;;4974915;28;20637;-64
2020/12/10 06:22:25;;;;;;;66.50;27.10;;;3.90;99.90;;;;;;4976041;28;20634;-64
2020/12/10 06:24:51;;;;;;;67.20;27.40;;;3.80;99.90;;;;;;4975630;28;20183;-65
2020/12/10 06:27:30;;;;;;;62.25;25.60;;;3.90;99.90;;;;;;4975662;28;20267;-64
2020/12/10 06:30:11;;;;;;;83.05;27.70;;;4.00;99.90;;;;;;4975722;28;20187;-64
2020/12/10 06:32:42;;;;;;;66.88;28.35;;;3.90;99.90;;;;;;4975792;28;20188;-64
2020/12/10 06:35:28;;;;;;;66.70;28.70;;;3.80;99.90;;;;;;4974916;28;20211;-63
2020/12/10 06:37:54;;;;;;;74.00;25.50;;;3.90;99.90;;;;;;4975551;28;20203;-64
2020/12/10 06:40:32;;;;;;;56.97;24.83;;;3.80;99.90;;;;;;4975837;28;20180;-64
2020/12/10 06:42:57;;;;;;;58.65;26.77;;;3.80;99.90;;;;;;4975343;28;20485;-64
2020/12/10 06:45:40;;;;;;;66.43;27.70;;;3.80;99.90;;;;;;4974743;28;20187;-64
2020/12/10 06:48:08;;;;;;;58.05;24.02;;;3.70;99.90;;;;;;4975040;28;20183;-64
2020/12/10 06:50:37;;;;;;;50.92;21.90;;;3.90;99.90;;;;;;4975099;28;20526;-65
2020/12/10 06:53:23;;;;;;;48.60;20.30;;;3.90;99.90;;;;;;4975014;28;20214;-64
2020/12/10 06:55:55;;;;;;;45.28;21.65;;;3.70;99.90;;;;;;4974778;28;20249;-64
2020/12/10 06:58:20;;;;;;;53.47;23.48;;;3.70;99.90;;;;;;4976073;28;20196;-65
2020/12/10 07:00:51;;;;;;;51.23;22.33;;;3.70;99.90;;;;;;4975452;28;20188;-64
2020/12/10 07:03:26;;;;;;;47.55;21.90;;;3.60;99.90;;;;;;4974885;28;20439;-64
2020/12/10 07:05:51;;;;;;;51.67;22.67;;;3.70;99.90;;;;;;4974866;28;20186;-64
2020/12/10 07:08:18;;;;;;;49.10;21.90;;;3.60;99.90;;;;;;4974670;28;20274;-64
2020/12/10 07:10:50;;;;;;;44.08;22.13;;;3.70;99.90;;;;;;4974795;28;20180;-62
2020/12/10 07:13:28;;;;;;;45.85;22.40;;;3.60;99.90;;;;;;4974687;28;20188;-62
2020/12/10 07:15:54;;;;;;;46.92;24.45;;;3.60;99.90;;;;;;4974803;28;20656;-63
2020/12/10 07:18:20;;;;;;;43.13;22.50;;;3.60;99.90;;;;;;4975058;28;20199;-63
2020/12/10 07:20:46;;;;;;;52.60;25.50;;;3.60;99.90;;;;;;4974069;28;20506;-63
2020/12/10 07:23:11;;;;;;;50.00;23.57;;;3.60;99.90;;;;;;4973916;28;20649;-62
2020/12/10 07:25:37;;;;;;;52.63;26.57;;;3.60;99.90;;;;;;4975069;28;20530;-63
2020/12/10 07:28:02;;;;;;;58.53;26.10;;;3.70;99.90;;;;;;4974858;28;20218;-62
2020/12/10 07:30:30;;;;;;;55.93;22.77;;;3.80;99.90;;;;;;4974662;28;20242;-62
2020/12/10 07:32:59;;;;;;;53.10;25.38;;;3.80;99.90;;;;;;4979620;28;20191;-63
2020/12/10 07:35:28;;;;;;;57.72;27.38;;;3.90;99.90;;;;;;4980985;28;20707;-62
2020/12/10 07:37:53;;;;;;;75.70;36.10;;;4.00;99.90;;;;;;4990261;28;20254;-63
2020/12/10 07:40:20;;;;;;;65.80;33.07;;;4.00;99.90;;;;;;4991925;28;20420;-61
2020/12/10 07:42:46;;;;;;;55.15;26.60;;;4.10;99.90;;;;;;4973617;28;20431;-61
2020/12/10 07:45:20;;;;;;;71.28;32.20;;;4.10;99.90;;;;;;4974508;28;20187;-61
2020/12/10 07:47:57;;;;;;;63.20;26.33;;;3.60;99.90;;;;;;4977395;28;20187;-61
2020/12/10 07:50:25;;;;;;;74.32;32.08;;;3.60;99.90;;;;;;4978557;28;20183;-61
2020/12/10 07:52:52;;;;;;;82.60;32.88;;;3.60;99.90;;;;;;4992310;28;20187;-61
2020/12/10 07:55:26;;;;;;;83.60;36.10;;;3.40;99.90;;;;;;4986344;28;20227;-61
2020/12/10 07:58:00;;;;;;;74.93;30.13;;;3.30;99.90;;;;;;4982198;28;20180;-61
2020/12/10 08:00:29;;;;;;;71.32;31.83;;;3.30;99.90;;;;;;4986438;28;20472;-61
2020/12/10 08:03:04;;;;;;;79.97;30.65;;;3.30;99.90;;;;;;4995671;28;20254;-61
2020/12/10 08:05:30;;;;;;;71.85;30.52;;;3.30;99.90;;;;;;4977999;28;20631;-61
2020/12/10 08:07:56;;;;;;;82.55;32.33;;;3.30;99.90;;;;;;4994911;28;20198;-61
2020/12/10 08:10:27;;;;;;;72.50;34.55;;;3.30;99.90;;;;;;4997700;28;20683;-61
2020/12/10 08:13:12;;;;;;;88.15;35.95;;;3.50;99.90;;;;;;4989538;28;20653;-61
2020/12/10 08:15:39;;;;;;;76.25;32.45;;;3.60;99.90;;;;;;4970137;28;20211;-61
2020/12/10 08:18:07;;;;;;;89.55;33.65;;;3.50;99.90;;;;;;4975907;28;20266;-61
2020/12/10 08:20:46;;;;;;;96.22;35.90;;;3.60;99.90;;;;;;4978068;28;20187;-61
2020/12/10 08:23:13;;;;;;;72.10;31.70;;;3.60;99.90;;;;;;4958406;28;20230;-61
2020/12/10 08:25:39;;;;;;;85.95;38.50;;;3.70;99.90;;;;;;4958686;28;20191;-61
2020/12/10 08:28:06;;;;;;;81.35;34.03;;;3.40;99.90;;;;;;4975283;28;20192;-61
2020/12/10 08:30:32;;;;;;;82.13;36.60;;;3.40;99.90;;;;;;4977842;28;20195;-61
2020/12/10 08:32:59;;;;;;;75.43;32.05;;;3.40;99.90;;;;;;4977642;28;20214;-61
2020/12/10 08:35:26;;;;;;;76.65;31.67;;;3.40;99.90;;;;;;4977961;28;20246;-61
2020/12/10 08:37:51;;;;;;;83.55;34.97;;;3.40;99.90;;;;;;4993998;28;20175;-61
2020/12/10 08:40:28;;;;;;;74.83;32.70;;;3.30;99.90;;;;;;4994470;28;20180;-61
2020/12/10 08:42:54;;;;;;;85.80;33.47;;;3.50;99.90;;;;;;4977572;28;20431;-61
2020/12/10 08:45:30;;;;;;;85.35;34.60;;;3.40;99.90;;;;;;4976223;28;20259;-61
2020/12/10 08:47:58;;;;;;;82.30;33.42;;;3.40;99.90;;;;;;4977384;28;20183;-61
2020/12/10 08:50:27;;;;;;;72.25;32.08;;;3.40;99.90;;;;;;4977227;28;20203;-61
2020/12/10 08:52:59;;;;;;;88.88;35.17;;;3.40;99.90;;;;;;4977454;28;20176;-61
2020/12/10 08:55:36;;;;;;;92.57;33.10;;;3.30;99.90;;;;;;4976734;28;20473;-61
2020/12/10 08:58:01;;;;;;;76.80;30.17;;;3.40;99.90;;;;;;4975959;28;20198;-60
2020/12/10 09:00:27;;;;;;;81.47;34.67;;;3.40;99.90;;;;;;4975738;28;20176;-60
2020/12/10 09:02:53;;;;;;;74.83;33.03;;;3.40;99.90;;;;;;4977158;28;20614;-60
2020/12/10 09:05:18;;;;;;;78.53;32.20;;;3.70;99.90;;;;;;4977072;28;20180;-60
2020/12/10 09:07:44;;;;;;;67.20;29.23;;;3.70;99.90;;;;;;4977193;28;20230;-60
2020/12/10 09:10:10;;;;;;;65.63;30.17;;;3.50;99.90;;;;;;4976843;28;20195;-61
2020/12/10 09:12:35;;;;;;;70.47;27.63;;;3.40;99.90;;;;;;4977019;28;20943;-60
2020/12/10 09:15:01;;;;;;;65.77;29.57;;;3.40;99.90;;;;;;4976841;28;20190;-60
2020/12/10 09:17:27;;;;;;;78.03;32.43;;;3.40;99.90;;;;;;4977283;28;20267;-60
2020/12/10 09:19:53;;;;;;;71.97;30.98;;;3.50;99.90;;;;;;4977481;28;20579;-60
2020/12/10 09:22:18;;;;;;;71.00;31.70;;;3.50;99.90;;;;;;4977321;28;20207;-60
2020/12/10 09:24:44;;;;;;;64.27;28.13;;;3.40;99.90;;;;;;4977212;28;20260;-60
2020/12/10 09:27:18;;;;;;;63.03;31.43;;;3.40;99.90;;;;;;4977820;28;20215;-59
2020/12/10 09:29:43;;;;;;;63.92;29.65;;;3.40;99.90;;;;;;4976543;28;20180;-59
2020/12/10 09:32:09;;;;;;;60.80;28.87;;;3.50;99.90;;;;;;4977406;28;20644;-60
2020/12/10 09:34:35;;;;;;;60.27;25.90;;;3.50;99.90;;;;;;4977076;28;20199;-60
2020/12/10 09:37:00;;;;;;;64.03;28.13;;;3.60;99.90;;;;;;4977078;28;20235;-60
2020/12/10 09:39:26;;;;;;;63.30;28.40;;;3.50;99.90;;;;;;4976945;28;20262;-60
2020/12/10 09:41:52;;;;;;;60.27;29.70;;;3.60;99.90;;;;;;4992452;28;20183;-60
2020/12/10 09:44:17;;;;;;;58.10;27.80;;;3.50;99.90;;;;;;4996481;28;20780;-59
2020/12/10 09:46:43;;;;;;;68.13;30.30;;;3.40;99.90;;;;;;4996514;28;20191;-60
2020/12/10 09:49:09;;;;;;;64.83;29.57;;;3.50;99.90;;;;;;4996178;28;20639;-60
2020/12/10 09:51:55;;;;;;;72.47;31.27;;;3.70;99.90;;;;;;4996343;28;20189;-59
2020/12/10 09:59:22;;;;;;;63.85;28.88;;;3.50;93.20;;;;;;4974224;28;20196;-62
2020/12/10 10:01:47;;;;;;;62.93;28.70;;;3.60;95.40;;;;;;4976271;28;20472;-62
2020/12/10 10:04:13;;;;;;;65.70;28.77;;;3.90;99.90;;;;;;4977257;28;20923;-61
2020/12/10 10:06:42;;;;;;;71.47;31.23;;;4.00;99.90;;;;;;4976354;28;20190;-63
2020/12/10 10:09:07;;;;;;;66.28;28.02;;;3.80;66.80;;;;;;4978918;28;20565;-64
2020/12/10 10:11:33;;;;;;;72.30;31.27;;;3.90;49.50;;;;;;4976182;28;20211;-63
2020/12/10 10:13:59;;;;;;;67.83;31.60;;;4.00;17.00;;;;;;4976964;28;20198;-61
2020/12/10 10:16:28;;;;;;;70.97;30.30;;;3.70;1.00;;;;;;4976860;28;20571;-61
2020/12/10 10:18:54;;;;;;;72.22;29.05;;;3.70;1.00;;;;;;4979671;28;20565;-60
2020/12/10 10:21:22;;;;;;;68.45;28.88;;;3.70;1.00;;;;;;4975890;28;20176;-61
2020/12/10 10:23:48;;;;;;;71.55;29.63;;;3.70;1.00;;;;;;4975425;28;20176;-60
2020/12/10 10:26:13;;;;;;;70.00;30.80;;;3.80;1.00;;;;;;4975634;28;20187;-60
2020/12/10 10:28:39;;;;;;;61.20;29.17;;;4.00;1.00;;;;;;4976152;28;20172;-63
2020/12/10 10:31:08;;;;;;;67.72;30.48;;;4.20;1.00;;;;;;4976652;28;20199;-61
2020/12/10 10:33:34;;;;;;;71.90;32.63;;;4.20;1.00;;;;;;4975812;28;20191;-61
2020/12/10 10:36:01;;;;;;;77.43;31.07;;;3.80;1.00;;;;;;4990585;28;20287;-66
2020/12/10 10:38:30;;;;;;;68.05;31.75;;;3.70;1.00;;;;;;4995382;28;20514;-60
2020/12/10 10:40:56;;;;;;;70.20;30.13;;;3.70;1.00;;;;;;4988667;28;20192;-65
2020/12/10 10:43:22;;;;;;;58.58;27.50;;;4.00;1.00;;;;;;4975919;28;20259;-64
2020/12/10 10:45:48;;;;;;;74.50;30.63;;;4.00;1.00;;;;;;4976169;28;20222;-64
2020/12/10 10:48:14;;;;;;;73.00;30.50;;;4.00;1.00;;;;;;4976098;28;20186;-64
2020/12/10 10:50:39;;;;;;;69.27;29.33;;;4.00;1.00;;;;;;4975141;28;20450;-62
2020/12/10 10:53:05;;;;;;;70.30;29.77;;;4.00;1.00;;;;;;4975121;28;20246;-63
2020/12/10 10:55:31;;;;;;;78.90;32.43;;;3.90;1.00;;;;;;4974862;28;20230;-64
2020/12/10 10:57:56;;;;;;;79.80;34.43;;;3.90;1.00;;;;;;4973581;28;20274;-63
2020/12/10 11:00:22;;;;;;;66.40;30.57;;;3.80;1.00;;;;;;4972931;28;20191;-62
2020/12/10 11:02:47;;;;;;;69.63;29.97;;;3.80;1.00;;;;;;4975027;28;20704;-63
2020/12/10 11:05:13;;;;;;;76.73;30.40;;;3.70;1.00;;;;;;4974923;28;20187;-65
2020/12/10 11:07:40;;;;;;;70.17;31.60;;;3.70;1.00;;;;;;4975051;28;20211;-64
2020/12/10 11:10:06;;;;;;;59.28;28.77;;;3.70;1.00;;;;;;4989136;28;20498;-65
2020/12/10 11:12:32;;;;;;;69.03;30.83;;;3.80;1.00;;;;;;4987211;28;20210;-64
2020/12/10 11:14:57;;;;;;;68.63;29.87;;;3.80;1.00;;;;;;4978040;28;20908;-64
2020/12/10 11:17:23;;;;;;;69.80;31.13;;;3.60;1.00;;;;;;4992512;28;20183;-64
2020/12/10 11:19:49;;;;;;;73.50;30.27;;;3.70;1.00;;;;;;4979273;28;20518;-63
2020/12/10 11:22:15;;;;;;;78.80;32.65;;;3.70;1.00;;;;;;4994707;28;20671;-66
2020/12/10 11:24:41;;;;;;;74.53;32.87;;;3.70;1.00;;;;;;4994140;28;20234;-61
2020/12/10 11:27:06;;;;;;;61.33;29.33;;;3.80;1.00;;;;;;4994810;28;20183;-62
2020/12/10 11:29:32;;;;;;;72.50;30.17;;;3.80;1.00;;;;;;4981541;28;20226;-62
2020/12/10 11:32:00;;;;;;;68.32;30.48;;;3.90;1.00;;;;;;4970888;28;20192;-62
2020/12/10 11:34:26;;;;;;;66.00;29.73;;;4.10;1.00;;;;;;4972203;28;20184;-63
2020/12/10 11:36:52;;;;;;;64.77;27.63;;;4.00;1.00;;;;;;4973626;28;20500;-62
2020/12/10 11:39:18;;;;;;;71.33;28.10;;;3.90;1.00;;;;;;4975180;28;20176;-61
2020/12/10 11:41:44;;;;;;;66.43;30.08;;;3.80;1.00;;;;;;4979892;28;20212;-62
2020/12/10 11:44:13;;;;;;;70.57;28.98;;;3.90;1.00;;;;;;4978145;28;20326;-63
2020/12/10 11:46:39;;;;;;;64.72;30.33;;;3.90;1.00;;;;;;4978251;28;20521;-65
2020/12/10 11:49:05;;;;;;;59.37;30.10;;;4.00;1.00;;;;;;4975848;28;20191;-64
2020/12/10 11:51:32;;;;;;;70.43;30.50;;;4.00;1.00;;;;;;4975873;28;20190;-64
2020/12/10 11:54:00;;;;;;;61.13;28.23;;;3.90;1.00;;;;;;4975835;28;20184;-64
2020/12/10 11:56:29;;;;;;;61.95;30.35;;;3.80;1.00;;;;;;4974812;28;20223;-66
2020/12/10 11:58:55;;;;;;;71.45;31.13;;;3.90;1.00;;;;;;4975986;28;20275;-67
2020/12/10 12:01:21;;;;;;;62.83;26.67;;;4.10;1.00;;;;;;4991193;28;20180;-65
2020/12/10 12:03:47;;;;;;;68.80;29.07;;;4.00;1.00;;;;;;4995738;28;20545;-67
2020/12/10 12:06:12;;;;;;;66.00;29.03;;;4.20;1.00;;;;;;4986964;28;20184;-65
2020/12/10 12:08:38;;;;;;;54.57;30.00;;;4.30;1.00;;;;;;4976612;28;20184;-66
2020/12/10 12:11:03;;;;;;;62.73;28.90;;;4.30;1.00;;;;;;4993317;28;20211;-66
2020/12/10 12:13:29;;;;;;;70.93;31.30;;;4.10;1.00;;;;;;4993607;28;20207;-66
2020/12/10 12:15:55;;;;;;;61.85;27.63;;;3.90;1.00;;;;;;4974047;28;20219;-66
2020/12/10 12:18:21;;;;;;;58.60;28.97;;;3.90;1.00;;;;;;4974264;28;20179;-66
2020/12/10 12:20:47;;;;;;;58.42;26.13;;;3.90;1.00;;;;;;4973668;28;20176;-66
2020/12/10 12:23:13;;;;;;;54.40;26.63;;;3.80;1.00;;;;;;4973978;28;20234;-66
2020/12/10 12:25:39;;;;;;;64.53;27.13;;;3.80;1.00;;;;;;4974713;28;20176;-66
2020/12/10 12:28:05;;;;;;;77.13;30.35;;;3.90;1.00;;;;;;4973540;28;20187;-66
2020/12/10 12:30:32;;;;;;;68.35;29.95;;;4.10;1.00;;;;;;4974487;28;20184;-66
2020/12/10 12:32:58;;;;;;;64.60;29.02;;;4.20;1.00;;;;;;4973748;28;20192;-66
2020/12/10 12:35:24;;;;;;;65.57;29.30;;;4.10;1.00;;;;;;4976318;28;20214;-66
2020/12/10 12:37:49;;;;;;;71.90;30.47;;;4.30;1.00;;;;;;4980822;28;20426;-65
2020/12/10 12:40:17;;;;;;;69.27;30.27;;;4.20;1.00;;;;;;4988898;28;20237;-63
2020/12/10 12:42:43;;;;;;;62.22;29.38;;;4.00;1.00;;;;;;4982889;28;20189;-63
2020/12/10 12:45:10;;;;;;;67.50;27.63;;;3.90;1.00;;;;;;4986689;28;20183;-61
2020/12/10 12:47:36;;;;;;;63.97;29.08;;;3.90;1.00;;;;;;4997665;28;20179;-63